Time;durP1;ratioP1;P1;durP2;ratioP2;P2;SDS_P1;SDS_P2;PMS_P1;PMS_P2;Temp;Humidity;BMP_temperature;BMP_pressure;BME280_temperature;BME280_humidity;BME280_pressure;Samples;Min_cycle;Max_cycle;Signal;HPM_P1;HPM_P2
2022/07/30 00:00:18;;;;;;;3.70;3.40;;;16.30;99.90;;;;;;493274;241;28709;-71
2022/07/30 00:02:19;;;;;;;4.07;3.67;;;16.30;99.90;;;;;;493160;241;28765;-68
2022/07/30 00:04:20;;;;;;;4.47;3.60;;;16.20;99.90;;;;;;493253;241;29240;-70
2022/07/30 00:06:21;;;;;;;4.70;3.87;;;16.20;99.90;;;;;;493219;241;29196;-68
2022/07/30 00:08:23;;;;;;;4.17;3.77;;;16.20;99.90;;;;;;493286;241;29195;-68
2022/07/30 00:10:24;;;;;;;4.30;3.90;;;16.10;99.90;;;;;;493317;241;29184;-71
2022/07/30 00:12:25;;;;;;;4.70;4.30;;;16.10;99.90;;;;;;493297;241;28740;-68
2022/07/30 00:14:26;;;;;;;3.83;3.53;;;16.00;99.90;;;;;;493301;241;28804;-70
2022/07/30 00:16:28;;;;;;;4.30;4.00;;;16.00;99.90;;;;;;493184;241;28768;-68
2022/07/30 00:18:29;;;;;;;4.77;4.37;;;16.00;99.90;;;;;;493232;241;28777;-68
2022/07/30 00:20:31;;;;;;;4.53;4.13;;;16.00;99.90;;;;;;493315;241;28701;-71
2022/07/30 00:22:33;;;;;;;3.77;3.50;;;15.90;99.90;;;;;;493278;241;28795;-68
2022/07/30 00:24:34;;;;;;;4.20;3.90;;;15.80;99.90;;;;;;493239;241;28709;-68
2022/07/30 00:26:35;;;;;;;4.37;3.97;;;15.80;99.90;;;;;;493162;241;29284;-68
2022/07/30 00:28:36;;;;;;;4.10;3.80;;;15.80;99.90;;;;;;493287;241;29208;-72
2022/07/30 00:30:39;;;;;;;4.23;3.70;;;15.80;99.90;;;;;;493246;241;29128;-68
2022/07/30 00:32:39;;;;;;;3.60;3.40;;;15.70;99.90;;;;;;493151;241;29169;-68
2022/07/30 00:34:40;;;;;;;4.30;3.90;;;15.70;99.90;;;;;;493242;241;28660;-69
2022/07/30 00:36:41;;;;;;;3.63;3.40;;;15.70;99.90;;;;;;493077;241;28688;-68
2022/07/30 00:38:43;;;;;;;4.20;3.90;;;15.70;99.90;;;;;;493272;241;28704;-71
2022/07/30 00:40:44;;;;;;;3.90;3.60;;;15.60;99.90;;;;;;493264;241;28781;-68
2022/07/30 00:42:45;;;;;;;5.00;4.50;;;15.60;99.90;;;;;;493258;241;28717;-69
2022/07/30 00:44:46;;;;;;;4.10;3.80;;;15.60;99.90;;;;;;493244;241;28760;-68
2022/07/30 00:46:48;;;;;;;4.23;3.90;;;15.60;99.90;;;;;;493203;241;28772;-69
2022/07/30 00:48:49;;;;;;;4.37;4.07;;;15.60;99.90;;;;;;493266;241;28720;-70
2022/07/30 00:50:50;;;;;;;4.10;3.70;;;15.60;99.90;;;;;;493261;241;29218;-69
2022/07/30 00:52:51;;;;;;;4.23;3.90;;;15.60;99.90;;;;;;493263;241;29196;-68
2022/07/30 00:54:53;;;;;;;4.30;3.97;;;15.60;99.90;;;;;;493274;241;30011;-67
2022/07/30 00:56:54;;;;;;;4.80;4.40;;;15.50;99.90;;;;;;493107;241;29198;-68
2022/07/30 00:58:55;;;;;;;3.77;3.57;;;15.40;99.90;;;;;;493279;241;28716;-71
2022/07/30 01:00:56;;;;;;;4.10;3.80;;;15.30;99.90;;;;;;493250;241;28666;-68
2022/07/30 01:02:58;;;;;;;4.10;3.80;;;15.20;99.90;;;;;;493227;241;28708;-68
2022/07/30 01:04:59;;;;;;;4.47;4.07;;;15.20;99.90;;;;;;493222;241;28788;-68
2022/07/30 01:07:00;;;;;;;5.20;4.40;;;15.20;99.90;;;;;;493214;241;28685;-68
2022/07/30 01:09:01;;;;;;;3.97;3.67;;;15.20;99.90;;;;;;493262;241;28795;-70
2022/07/30 01:11:03;;;;;;;3.67;3.37;;;15.20;99.90;;;;;;493251;241;28693;-68
2022/07/30 01:13:04;;;;;;;4.50;3.80;;;15.20;99.90;;;;;;493263;241;28737;-68
2022/07/30 01:15:05;;;;;;;4.00;3.70;;;15.20;99.90;;;;;;493255;241;28661;-68
2022/07/30 01:17:06;;;;;;;3.83;3.53;;;15.10;99.90;;;;;;493139;241;29147;-69
2022/07/30 01:21:28;;;;;;;3.83;3.53;;;15.10;99.90;;;;;;493244;241;28674;-68
2022/07/30 01:23:29;;;;;;;3.83;3.53;;;15.10;99.90;;;;;;493269;241;28760;-67
2022/07/30 01:25:30;;;;;;;3.60;3.40;;;15.10;99.90;;;;;;493204;241;28783;-69
2022/07/30 01:27:31;;;;;;;3.80;3.50;;;15.10;99.90;;;;;;493227;241;28770;-68
2022/07/30 01:29:32;;;;;;;4.30;3.87;;;15.10;99.90;;;;;;493271;241;28733;-68
2022/07/30 01:31:34;;;;;;;3.80;3.50;;;15.00;99.90;;;;;;493265;241;29231;-67
2022/07/30 01:33:35;;;;;;;3.83;3.53;;;15.00;99.90;;;;;;493272;241;29209;-68
2022/07/30 01:35:36;;;;;;;3.90;3.60;;;15.00;99.90;;;;;;493191;241;29180;-71
2022/07/30 01:37:37;;;;;;;3.83;3.53;;;14.90;99.90;;;;;;493108;241;28677;-68
2022/07/30 01:39:39;;;;;;;3.50;3.20;;;14.90;99.90;;;;;;493261;241;28693;-69
2022/07/30 01:41:40;;;;;;;3.70;3.50;;;14.90;99.90;;;;;;493264;241;28813;-68
2022/07/30 01:43:41;;;;;;;3.73;3.43;;;14.90;99.90;;;;;;493264;241;28696;-69
2022/07/30 01:45:42;;;;;;;3.63;3.37;;;14.90;99.90;;;;;;493261;241;28706;-72
2022/07/30 01:47:44;;;;;;;3.07;2.87;;;14.90;99.90;;;;;;493095;241;28690;-69
2022/07/30 01:49:46;;;;;;;3.50;3.30;;;14.90;99.90;;;;;;493213;241;28735;-69
2022/07/30 01:51:46;;;;;;;3.10;2.90;;;14.80;99.90;;;;;;493195;241;28446;-68
2022/07/30 01:53:47;;;;;;;3.50;3.30;;;14.80;99.90;;;;;;493216;241;28762;-69
2022/07/30 01:55:49;;;;;;;3.30;3.10;;;14.80;99.90;;;;;;493247;241;29204;-71
2022/07/30 01:57:50;;;;;;;3.30;3.10;;;14.80;99.90;;;;;;493181;241;29245;-68
2022/07/30 01:59:51;;;;;;;4.23;3.83;;;14.90;99.90;;;;;;493247;241;29202;-68
2022/07/30 02:01:52;;;;;;;3.20;3.00;;;14.90;99.90;;;;;;493229;241;29144;-68
2022/07/30 02:03:54;;;;;;;3.40;3.10;;;14.80;99.90;;;;;;493269;241;28665;-70
2022/07/30 02:05:55;;;;;;;3.90;3.60;;;14.80;99.90;;;;;;493260;241;28701;-72
2022/07/30 02:07:56;;;;;;;3.23;3.03;;;14.70;99.90;;;;;;493133;241;28720;-68
2022/07/30 02:09:57;;;;;;;3.53;3.23;;;14.70;99.90;;;;;;493268;241;28795;-68
2022/07/30 02:14:18;;;;;;;5.20;3.40;;;14.60;99.90;;;;;;493267;241;29253;-67
2022/07/30 02:16:20;;;;;;;3.57;3.27;;;14.60;99.90;;;;;;493169;241;28865;-69
2022/07/30 02:18:21;;;;;;;3.70;3.33;;;14.50;99.90;;;;;;493233;241;28761;-68
2022/07/30 02:20:22;;;;;;;3.90;3.60;;;14.50;99.90;;;;;;493235;241;28682;-68
2022/07/30 02:22:25;;;;;;;3.70;3.40;;;14.40;99.90;;;;;;493280;241;28813;-71
2022/07/30 02:24:26;;;;;;;3.60;3.30;;;14.40;99.90;;;;;;493229;241;28829;-68
2022/07/30 02:26:27;;;;;;;3.73;3.43;;;14.40;99.90;;;;;;493151;241;29211;-71
2022/07/30 02:28:29;;;;;;;3.97;3.67;;;14.30;99.90;;;;;;493264;241;29232;-68
2022/07/30 02:30:30;;;;;;;3.87;3.57;;;14.30;99.90;;;;;;493117;241;29313;-70
2022/07/30 02:32:31;;;;;;;4.00;3.70;;;14.40;99.90;;;;;;493236;241;28744;-68
2022/07/30 02:34:32;;;;;;;3.40;3.20;;;14.30;99.90;;;;;;493251;241;29182;-68
2022/07/30 02:36:34;;;;;;;4.10;3.80;;;14.30;99.90;;;;;;493070;241;28738;-71
2022/07/30 02:38:35;;;;;;;3.67;3.47;;;14.30;99.90;;;;;;493243;241;28812;-68
2022/07/30 02:40:36;;;;;;;3.70;3.40;;;14.20;99.90;;;;;;493251;241;28420;-69
2022/07/30 02:42:38;;;;;;;3.60;3.37;;;14.20;99.90;;;;;;493244;241;28400;-68
2022/07/30 02:44:39;;;;;;;3.87;3.57;;;14.20;99.90;;;;;;493237;241;28499;-68
2022/07/30 02:46:40;;;;;;;3.43;3.13;;;14.10;99.90;;;;;;493211;241;28702;-71
2022/07/30 02:48:41;;;;;;;4.30;3.33;;;14.20;99.90;;;;;;493279;241;28365;-69
2022/07/30 02:50:42;;;;;;;4.57;3.67;;;14.20;99.90;;;;;;493257;241;28706;-68
2022/07/30 02:52:44;;;;;;;3.47;3.27;;;14.10;99.90;;;;;;493246;241;28682;-67
2022/07/30 02:54:45;;;;;;;3.80;3.50;;;14.10;99.90;;;;;;493240;241;28894;-69
2022/07/30 02:56:46;;;;;;;3.63;3.33;;;14.10;99.90;;;;;;493214;241;28938;-71
2022/07/30 02:58:47;;;;;;;3.43;3.20;;;14.10;99.90;;;;;;493255;241;28848;-67
2022/07/30 03:00:49;;;;;;;3.90;3.63;;;14.10;99.90;;;;;;493266;241;28443;-68
2022/07/30 03:02:50;;;;;;;3.13;2.93;;;14.20;99.90;;;;;;493246;241;28493;-70
2022/07/30 03:04:51;;;;;;;3.80;3.50;;;14.20;99.90;;;;;;493239;241;28681;-68
2022/07/30 03:06:52;;;;;;;3.67;3.47;;;14.10;99.90;;;;;;493131;241;28398;-71
2022/07/30 03:08:54;;;;;;;3.43;3.13;;;14.10;99.90;;;;;;493091;241;28406;-68
2022/07/30 03:10:55;;;;;;;3.63;3.33;;;14.10;99.90;;;;;;493029;241;28211;-69
2022/07/30 03:12:56;;;;;;;3.80;3.50;;;14.20;99.90;;;;;;493067;241;28760;-69
2022/07/30 03:14:57;;;;;;;3.50;3.30;;;14.20;99.90;;;;;;493269;241;28720;-68
2022/07/30 03:16:59;;;;;;;3.80;3.50;;;14.20;99.90;;;;;;493203;241;28717;-69
2022/07/30 03:19:01;;;;;;;3.13;2.93;;;14.10;99.90;;;;;;493250;241;29161;-68
2022/07/30 03:21:01;;;;;;;3.80;3.50;;;14.10;99.90;;;;;;493214;241;28854;-68
2022/07/30 03:23:02;;;;;;;3.20;3.00;;;14.10;99.90;;;;;;493248;241;28593;-68
2022/07/30 03:25:04;;;;;;;3.43;3.20;;;14.10;99.90;;;;;;493265;241;28332;-67
2022/07/30 03:27:05;;;;;;;3.40;3.20;;;14.10;99.90;;;;;;493208;241;28435;-72
2022/07/30 03:29:06;;;;;;;3.40;3.20;;;14.10;99.90;;;;;;493250;241;28670;-67
2022/07/30 03:31:09;;;;;;;3.33;3.10;;;14.00;99.90;;;;;;493220;241;28235;-69
2022/07/30 03:33:09;;;;;;;3.33;3.13;;;14.00;99.90;;;;;;493150;241;28201;-68
2022/07/30 03:35:10;;;;;;;3.60;3.30;;;13.90;99.90;;;;;;493204;241;28390;-69
2022/07/30 03:37:11;;;;;;;3.97;3.67;;;13.90;99.90;;;;;;493187;241;28097;-70
2022/07/30 03:39:12;;;;;;;3.73;3.43;;;13.80;99.90;;;;;;493246;241;28170;-69
2022/07/30 03:41:14;;;;;;;3.50;3.30;;;13.80;99.90;;;;;;493270;241;28481;-67
2022/07/30 03:43:15;;;;;;;4.33;3.43;;;13.80;99.90;;;;;;493226;241;28804;-68
2022/07/30 03:45:17;;;;;;;3.27;3.07;;;13.80;99.90;;;;;;493257;241;28776;-68
2022/07/30 03:47:17;;;;;;;3.77;3.50;;;13.80;99.90;;;;;;493161;241;28646;-71
2022/07/30 03:49:19;;;;;;;3.80;3.50;;;13.90;99.90;;;;;;493291;241;28837;-68
2022/07/30 03:51:20;;;;;;;3.93;3.63;;;13.80;99.90;;;;;;493280;241;28403;-69
2022/07/30 03:53:24;;;;;;;3.60;3.30;;;13.80;99.90;;;;;;493264;241;28155;-68
2022/07/30 03:55:22;;;;;;;3.80;3.50;;;13.80;99.90;;;;;;493069;241;28118;-69
2022/07/30 03:57:24;;;;;;;3.97;3.67;;;13.80;99.90;;;;;;493226;241;28435;-71
2022/07/30 03:59:25;;;;;;;3.97;3.57;;;13.80;99.90;;;;;;493269;241;28085;-68
2022/07/30 04:01:26;;;;;;;3.90;3.60;;;13.80;99.90;;;;;;493247;241;28415;-69
2022/07/30 04:03:27;;;;;;;2.93;2.73;;;13.90;99.90;;;;;;493266;241;28422;-68
2022/07/30 04:05:29;;;;;;;3.70;3.40;;;13.80;99.90;;;;;;493241;241;28269;-69
2022/07/30 04:07:30;;;;;;;3.60;3.30;;;13.90;99.90;;;;;;493201;241;28133;-72
2022/07/30 04:09:31;;;;;;;3.53;3.33;;;13.90;99.90;;;;;;493258;241;28933;-69
2022/07/30 04:11:32;;;;;;;3.30;3.10;;;13.90;99.90;;;;;;493287;241;28992;-70
2022/07/30 04:13:34;;;;;;;3.70;3.50;;;13.90;99.90;;;;;;493268;241;28352;-68
2022/07/30 04:15:35;;;;;;;3.50;3.30;;;14.00;99.90;;;;;;493242;241;28490;-68
2022/07/30 04:17:36;;;;;;;3.43;3.23;;;14.00;99.90;;;;;;493219;241;28318;-72
2022/07/30 04:19:37;;;;;;;3.83;3.30;;;14.00;99.90;;;;;;493270;241;28376;-68
2022/07/30 04:21:39;;;;;;;3.63;3.40;;;14.00;99.90;;;;;;493301;241;28373;-70
2022/07/30 04:23:40;;;;;;;3.60;3.30;;;13.90;99.90;;;;;;493309;241;28781;-68
2022/07/30 04:25:41;;;;;;;3.50;3.20;;;14.00;99.90;;;;;;493299;241;28213;-69
2022/07/30 04:27:42;;;;;;;3.80;3.60;;;13.80;99.90;;;;;;493207;241;28189;-71
2022/07/30 04:29:44;;;;;;;4.93;3.67;;;13.90;99.90;;;;;;493309;241;28235;-68
2022/07/30 04:31:45;;;;;;;3.97;3.63;;;13.90;99.90;;;;;;493277;241;29004;-68
2022/07/30 04:33:46;;;;;;;3.53;3.27;;;14.00;99.90;;;;;;493248;241;29147;-68
2022/07/30 04:35:47;;;;;;;3.70;3.40;;;14.00;99.90;;;;;;493033;241;29262;-68
2022/07/30 04:37:49;;;;;;;3.73;3.43;;;14.10;99.90;;;;;;493245;241;29011;-71
2022/07/30 04:39:53;;;;;;;3.97;3.67;;;14.20;99.90;;;;;;493265;241;28747;-68
2022/07/30 04:41:51;;;;;;;3.30;3.10;;;14.30;99.90;;;;;;493029;241;28745;-70
2022/07/30 04:43:52;;;;;;;3.13;2.93;;;14.30;99.90;;;;;;493258;241;28656;-68
2022/07/30 04:45:54;;;;;;;3.37;3.13;;;14.40;99.90;;;;;;493245;241;28802;-69
2022/07/30 04:47:55;;;;;;;3.20;2.90;;;14.40;99.90;;;;;;493188;241;28712;-68
2022/07/30 04:49:56;;;;;;;3.67;3.37;;;14.50;99.90;;;;;;493277;241;28680;-69
2022/07/30 04:51:57;;;;;;;3.33;3.13;;;14.60;99.90;;;;;;493268;241;28717;-70
2022/07/30 04:53:59;;;;;;;3.13;2.93;;;14.70;99.90;;;;;;493246;241;28772;-69
2022/07/30 04:56:01;;;;;;;4.30;3.70;;;14.70;99.90;;;;;;493219;241;28727;-71
2022/07/30 04:58:01;;;;;;;3.70;3.40;;;14.70;99.90;;;;;;493223;241;28737;-68
2022/07/30 05:00:02;;;;;;;3.70;3.40;;;14.70;99.90;;;;;;493273;241;28671;-68
2022/07/30 05:02:04;;;;;;;3.30;3.00;;;14.80;99.90;;;;;;493253;241;28741;-69
2022/07/30 05:04:05;;;;;;;3.50;3.00;;;14.80;99.90;;;;;;493249;241;28724;-68
2022/07/30 05:06:06;;;;;;;3.77;3.47;;;14.90;99.90;;;;;;493179;241;28717;-69
2022/07/30 05:08:08;;;;;;;3.60;3.30;;;14.90;99.90;;;;;;493252;241;29136;-68
2022/07/30 05:10:09;;;;;;;3.73;3.43;;;14.90;99.90;;;;;;493296;241;28682;-69
2022/07/30 05:12:10;;;;;;;3.90;3.60;;;15.00;99.90;;;;;;493216;241;29332;-73
2022/07/30 05:14:11;;;;;;;5.93;3.47;;;15.10;99.90;;;;;;493254;241;29132;-68
2022/07/30 05:16:13;;;;;;;3.87;3.57;;;15.00;99.90;;;;;;493183;241;29168;-69
2022/07/30 05:18:14;;;;;;;3.90;3.60;;;15.10;99.90;;;;;;493256;241;28783;-68
2022/07/30 05:20:15;;;;;;;3.77;3.47;;;15.10;99.90;;;;;;493242;241;28793;-69
2022/07/30 05:22:16;;;;;;;3.83;3.43;;;15.10;99.90;;;;;;493258;241;28714;-72
2022/07/30 05:24:18;;;;;;;4.13;3.73;;;15.20;99.90;;;;;;493220;241;28764;-69
2022/07/30 05:26:19;;;;;;;3.60;3.30;;;15.20;99.90;;;;;;493131;241;28709;-69
2022/07/30 05:28:21;;;;;;;3.37;3.17;;;15.20;99.90;;;;;;493223;241;28772;-68
2022/07/30 05:30:21;;;;;;;3.40;3.20;;;15.20;99.90;;;;;;493262;241;28693;-68
2022/07/30 05:32:23;;;;;;;3.73;3.43;;;15.20;99.90;;;;;;493259;241;28744;-71
2022/07/30 05:34:24;;;;;;;3.90;3.60;;;15.20;99.90;;;;;;493273;241;28673;-69
2022/07/30 05:36:25;;;;;;;4.30;3.70;;;15.20;99.90;;;;;;493112;241;29181;-68
2022/07/30 05:38:26;;;;;;;4.00;3.70;;;15.30;99.90;;;;;;493251;241;29255;-68
2022/07/30 05:40:28;;;;;;;3.60;3.30;;;15.30;99.90;;;;;;493278;241;29140;-69
2022/07/30 05:42:29;;;;;;;3.77;3.40;;;15.30;99.90;;;;;;493273;241;29147;-72
2022/07/30 05:44:30;;;;;;;4.03;3.73;;;15.30;99.90;;;;;;493261;241;28717;-68
2022/07/30 05:46:31;;;;;;;3.87;3.57;;;15.40;99.90;;;;;;493212;241;28697;-68
2022/07/30 05:48:34;;;;;;;4.10;3.70;;;15.40;99.90;;;;;;493265;241;28674;-68
2022/07/30 05:50:34;;;;;;;3.53;3.23;;;15.40;99.90;;;;;;493186;241;28677;-69
2022/07/30 05:52:35;;;;;;;3.40;3.10;;;15.50;99.90;;;;;;493263;241;28726;-72
2022/07/30 05:54:36;;;;;;;3.60;3.30;;;15.50;99.90;;;;;;493251;241;28795;-68
2022/07/30 05:56:39;;;;;;;3.23;3.03;;;15.60;99.90;;;;;;493181;241;28722;-69
2022/07/30 05:58:39;;;;;;;3.57;3.37;;;15.70;99.90;;;;;;493157;241;28662;-69
2022/07/30 06:00:40;;;;;;;2.83;2.63;;;15.80;99.90;;;;;;493227;241;29268;-68
2022/07/30 06:02:41;;;;;;;3.60;3.40;;;15.90;99.90;;;;;;493272;241;29286;-72
2022/07/30 06:04:43;;;;;;;3.23;3.03;;;15.90;99.90;;;;;;493219;241;29224;-68
2022/07/30 06:06:44;;;;;;;3.00;2.90;;;16.00;99.90;;;;;;493079;241;29274;-68
2022/07/30 06:08:45;;;;;;;3.90;3.60;;;16.10;99.90;;;;;;493262;241;28787;-68
2022/07/30 06:10:46;;;;;;;3.30;3.10;;;16.20;99.90;;;;;;493266;241;28810;-68
2022/07/30 06:12:48;;;;;;;3.30;3.00;;;16.20;99.90;;;;;;493276;241;28697;-71
2022/07/30 06:14:49;;;;;;;3.27;3.07;;;16.30;99.90;;;;;;493261;241;28751;-68
2022/07/30 06:16:50;;;;;;;3.40;3.20;;;16.30;99.90;;;;;;493174;241;28739;-70
2022/07/30 06:18:52;;;;;;;3.67;3.40;;;16.40;99.90;;;;;;493230;241;28726;-68
2022/07/30 06:20:53;;;;;;;3.33;3.13;;;16.40;99.90;;;;;;493219;241;28745;-68
2022/07/30 06:22:55;;;;;;;3.47;3.27;;;16.50;99.90;;;;;;493261;241;28706;-72
2022/07/30 06:24:56;;;;;;;3.57;3.27;;;16.60;99.90;;;;;;493243;241;28713;-69
2022/07/30 06:26:58;;;;;;;3.70;3.30;;;16.70;99.90;;;;;;493180;241;28693;-69
2022/07/30 06:28:59;;;;;;;3.37;3.17;;;16.70;99.90;;;;;;493241;241;29124;-68
2022/07/30 06:31:01;;;;;;;3.77;3.43;;;16.80;99.90;;;;;;493273;241;29266;-72
2022/07/30 06:33:01;;;;;;;3.47;3.27;;;16.90;99.90;;;;;;493263;241;29152;-69
2022/07/30 06:35:03;;;;;;;4.10;3.70;;;16.90;99.90;;;;;;493150;241;29281;-69
2022/07/30 06:37:04;;;;;;;7.60;3.90;;;17.00;99.90;;;;;;493203;241;28709;-69
2022/07/30 06:39:05;;;;;;;3.70;3.40;;;17.00;99.90;;;;;;493212;241;28722;-70
2022/07/30 06:41:06;;;;;;;4.07;3.77;;;17.00;99.90;;;;;;493278;241;28744;-72
2022/07/30 06:43:08;;;;;;;4.00;3.70;;;17.10;99.90;;;;;;493284;241;28673;-69
2022/07/30 06:45:09;;;;;;;3.30;3.10;;;17.20;99.90;;;;;;493232;241;28776;-70
2022/07/30 06:47:10;;;;;;;3.67;3.47;;;17.20;99.90;;;;;;493234;241;28685;-70
2022/07/30 06:49:11;;;;;;;4.33;3.53;;;17.20;99.90;;;;;;493260;241;28797;-69
2022/07/30 06:51:13;;;;;;;4.57;3.73;;;17.30;99.90;;;;;;493302;241;28800;-72
2022/07/30 06:53:14;;;;;;;3.73;3.43;;;17.40;99.90;;;;;;493273;241;29145;-69
2022/07/30 06:55:15;;;;;;;3.53;3.33;;;17.40;99.90;;;;;;493254;241;29204;-69
2022/07/30 06:57:16;;;;;;;3.77;3.47;;;17.50;99.90;;;;;;493189;241;29148;-70
2022/07/30 06:59:18;;;;;;;3.80;3.50;;;17.50;99.90;;;;;;493239;241;29183;-69
2022/07/30 07:01:22;;;;;;;4.10;3.80;;;17.60;99.90;;;;;;493276;241;28719;-73
2022/07/30 07:03:20;;;;;;;3.73;3.40;;;17.60;99.90;;;;;;493055;241;28780;-69
2022/07/30 07:05:22;;;;;;;3.40;3.20;;;17.70;99.90;;;;;;493268;241;28689;-70
2022/07/30 07:07:23;;;;;;;4.17;3.77;;;17.80;99.90;;;;;;493161;241;28753;-70
2022/07/30 07:09:24;;;;;;;4.20;3.90;;;17.90;99.90;;;;;;493260;241;28712;-70
2022/07/30 07:11:25;;;;;;;4.10;3.80;;;18.00;99.90;;;;;;493283;241;28720;-69
2022/07/30 07:13:26;;;;;;;4.60;3.70;;;18.00;99.90;;;;;;493290;241;28707;-69
2022/07/30 07:15:28;;;;;;;3.80;3.50;;;18.10;99.90;;;;;;493298;241;28744;-70
2022/07/30 07:17:29;;;;;;;4.07;3.77;;;18.10;99.90;;;;;;493225;241;28756;-70
2022/07/30 07:19:30;;;;;;;3.60;3.30;;;18.20;99.90;;;;;;493266;241;29359;-69
2022/07/30 07:21:31;;;;;;;3.60;3.30;;;18.30;99.90;;;;;;493287;241;29201;-72
2022/07/30 07:23:33;;;;;;;3.70;3.40;;;18.30;99.90;;;;;;493293;241;29155;-69
2022/07/30 07:25:34;;;;;;;4.10;3.33;;;18.30;99.90;;;;;;493284;241;28772;-70
2022/07/30 07:27:35;;;;;;;4.40;4.00;;;18.40;99.90;;;;;;493237;241;28710;-69
2022/07/30 07:29:36;;;;;;;4.23;3.87;;;18.50;99.90;;;;;;493264;241;28709;-69
2022/07/30 07:31:38;;;;;;;3.97;3.70;;;18.50;99.90;;;;;;493300;241;28700;-72
2022/07/30 07:33:39;;;;;;;4.40;4.00;;;18.60;99.90;;;;;;493282;241;28663;-69
2022/07/30 07:35:40;;;;;;;4.40;4.00;;;18.70;99.90;;;;;;493155;241;28835;-69
2022/07/30 07:37:41;;;;;;;4.30;3.90;;;18.80;99.90;;;;;;493223;241;28768;-70
2022/07/30 07:39:43;;;;;;;4.53;4.10;;;18.90;99.90;;;;;;493286;241;28793;-69
2022/07/30 07:41:44;;;;;;;6.20;4.70;;;19.00;99.90;;;;;;493300;241;28781;-72
2022/07/30 07:43:45;;;;;;;4.90;4.50;;;19.00;99.90;;;;;;493268;241;29188;-69
2022/07/30 07:45:46;;;;;;;4.50;4.10;;;19.10;99.90;;;;;;493284;241;29215;-69
2022/07/30 07:47:48;;;;;;;4.13;3.80;;;19.10;99.90;;;;;;493237;241;29213;-70
2022/07/30 07:49:49;;;;;;;4.07;3.77;;;19.10;99.90;;;;;;493275;241;28800;-69
2022/07/30 07:51:50;;;;;;;4.60;4.20;;;19.20;99.90;;;;;;493297;241;28709;-71
2022/07/30 07:53:51;;;;;;;4.23;3.80;;;19.30;99.90;;;;;;493271;241;28706;-69
2022/07/30 07:55:53;;;;;;;4.70;4.27;;;19.40;99.90;;;;;;493289;241;28718;-69
2022/07/30 07:57:54;;;;;;;4.80;4.40;;;19.40;99.90;;;;;;493228;241;28715;-69
2022/07/30 07:59:55;;;;;;;4.47;4.07;;;19.50;99.90;;;;;;493292;241;28816;-70
2022/07/30 08:01:56;;;;;;;10.00;4.13;;;19.60;99.90;;;;;;493287;241;28717;-72
2022/07/30 08:03:58;;;;;;;4.10;3.80;;;19.60;99.90;;;;;;493282;241;28680;-69
2022/07/30 08:06:00;;;;;;;4.57;4.13;;;19.70;99.90;;;;;;493280;241;28800;-72
2022/07/30 08:08:00;;;;;;;6.40;4.50;;;19.80;99.90;;;;;;493194;241;29224;-70
2022/07/30 08:10:01;;;;;;;4.73;4.23;;;19.80;99.90;;;;;;493276;241;29165;-69
2022/07/30 08:12:03;;;;;;;5.33;4.33;;;19.90;99.90;;;;;;493303;241;29182;-73
2022/07/30 08:14:04;;;;;;;6.50;4.53;;;20.00;99.90;;;;;;493304;241;28769;-69
2022/07/30 08:16:08;;;;;;;4.67;4.27;;;20.00;99.90;;;;;;493267;241;28752;-70
2022/07/30 08:18:07;;;;;;;7.40;4.70;;;20.10;99.90;;;;;;493072;241;28669;-69
2022/07/30 08:20:08;;;;;;;4.67;4.20;;;20.20;99.90;;;;;;493288;241;28811;-69
2022/07/30 08:22:09;;;;;;;4.53;4.13;;;20.10;99.90;;;;;;493286;241;28732;-75
2022/07/30 08:24:10;;;;;;;6.93;4.00;;;20.20;99.90;;;;;;493282;241;28789;-69
2022/07/30 08:26:11;;;;;;;4.60;4.20;;;20.40;99.90;;;;;;493229;241;28709;-70
2022/07/30 08:28:13;;;;;;;4.07;3.77;;;20.50;99.90;;;;;;493288;241;28748;-69
2022/07/30 08:30:14;;;;;;;4.30;3.90;;;20.40;99.90;;;;;;493295;241;28721;-69
2022/07/30 08:32:15;;;;;;;4.97;4.10;;;20.40;99.90;;;;;;493288;241;29204;-74
2022/07/30 08:34:17;;;;;;;6.00;4.10;;;20.50;99.90;;;;;;493282;241;29152;-69
2022/07/30 08:36:18;;;;;;;4.40;4.00;;;20.50;99.90;;;;;;493030;241;29211;-72
2022/07/30 08:38:19;;;;;;;5.10;4.33;;;20.50;99.90;;;;;;493242;241;29132;-69
2022/07/30 08:40:20;;;;;;;4.10;3.70;;;20.60;99.90;;;;;;493242;241;28705;-70
2022/07/30 08:42:21;;;;;;;6.10;3.77;;;20.80;99.90;;;;;;493290;241;28824;-72
2022/07/30 08:44:23;;;;;;;4.43;4.03;;;20.90;99.90;;;;;;493287;241;28681;-70
2022/07/30 08:46:25;;;;;;;4.23;3.70;;;20.90;99.90;;;;;;493228;241;28822;-71
2022/07/30 08:48:25;;;;;;;3.67;3.27;;;21.00;99.90;;;;;;493252;241;28705;-69
2022/07/30 08:50:26;;;;;;;3.80;3.40;;;21.00;99.90;;;;;;493250;241;28750;-70
2022/07/30 08:52:28;;;;;;;5.87;3.60;;;21.00;99.90;;;;;;493285;241;28689;-73
2022/07/30 08:54:29;;;;;;;4.13;3.30;;;21.20;99.90;;;;;;493296;241;28691;-69
2022/07/30 08:56:30;;;;;;;3.97;3.53;;;21.10;99.90;;;;;;493222;241;28808;-70
2022/07/30 08:58:33;;;;;;;3.60;3.30;;;21.10;99.90;;;;;;493295;241;29161;-70
2022/07/30 09:00:33;;;;;;;4.87;3.90;;;21.10;99.90;;;;;;493162;241;29248;-69
2022/07/30 09:02:34;;;;;;;4.30;3.70;;;21.10;99.90;;;;;;493306;241;29125;-70
2022/07/30 09:04:35;;;;;;;4.20;3.07;;;21.10;99.90;;;;;;493287;241;28780;-69
2022/07/30 09:06:36;;;;;;;3.03;2.83;;;21.30;99.90;;;;;;493219;241;28735;-72
2022/07/30 09:08:38;;;;;;;5.47;3.20;;;21.40;99.90;;;;;;493246;241;28739;-70
2022/07/30 09:10:41;;;;;;;4.30;3.10;;;21.30;99.90;;;;;;493285;241;28700;-71
2022/07/30 09:12:40;;;;;;;3.63;3.33;;;21.30;99.90;;;;;;493163;241;28716;-70
2022/07/30 09:14:41;;;;;;;3.50;3.30;;;21.20;99.90;;;;;;493285;241;28750;-70
2022/07/30 09:16:43;;;;;;;3.40;3.10;;;21.20;99.90;;;;;;493228;241;28738;-71
2022/07/30 09:18:44;;;;;;;3.73;3.33;;;21.20;99.90;;;;;;493251;241;28769;-70
2022/07/30 09:20:45;;;;;;;3.10;2.80;;;21.20;99.90;;;;;;493257;241;28846;-70
2022/07/30 09:22:46;;;;;;;3.07;2.87;;;21.50;99.90;;;;;;493295;241;29338;-73
2022/07/30 09:24:48;;;;;;;3.53;3.30;;;21.60;99.90;;;;;;493308;241;29131;-71
2022/07/30 09:26:49;;;;;;;3.40;3.00;;;21.70;99.90;;;;;;493274;241;29272;-71
2022/07/30 09:28:50;;;;;;;3.03;2.83;;;21.40;99.90;;;;;;493317;241;28755;-69
2022/07/30 09:30:52;;;;;;;3.30;2.60;;;21.30;99.90;;;;;;493228;241;28701;-70
2022/07/30 09:32:53;;;;;;;4.03;3.13;;;21.30;99.90;;;;;;493236;241;28710;-69
2022/07/30 09:34:54;;;;;;;3.37;3.00;;;21.40;99.90;;;;;;493151;241;28667;-69
2022/07/30 09:36:55;;;;;;;2.70;2.50;;;21.40;99.90;;;;;;493192;241;28796;-70
2022/07/30 09:38:56;;;;;;;3.43;3.07;;;21.50;99.90;;;;;;493283;241;28676;-71
2022/07/30 09:40:58;;;;;;;4.50;3.30;;;21.70;99.90;;;;;;493259;241;28723;-70
2022/07/30 09:42:59;;;;;;;5.70;3.27;;;21.80;99.90;;;;;;493265;241;28850;-69
2022/07/30 09:45:00;;;;;;;3.80;3.43;;;21.90;99.90;;;;;;493283;241;28685;-70
2022/07/30 09:47:01;;;;;;;8.90;3.20;;;21.80;99.90;;;;;;493207;241;29257;-70
2022/07/30 09:49:03;;;;;;;3.20;2.90;;;21.90;99.90;;;;;;493267;241;29939;-69
2022/07/30 09:51:04;;;;;;;2.90;2.70;;;22.10;99.90;;;;;;493242;241;29314;-70
2022/07/30 09:53:05;;;;;;;3.77;3.30;;;22.40;99.90;;;;;;493262;241;29307;-73
2022/07/30 09:55:06;;;;;;;3.43;3.10;;;22.40;99.90;;;;;;493271;241;28670;-69
2022/07/30 09:57:08;;;;;;;5.33;2.90;;;22.60;99.90;;;;;;493044;241;28718;-70
2022/07/30 09:59:10;;;;;;;3.47;3.00;;;22.50;99.90;;;;;;493042;241;28732;-69
2022/07/30 10:01:10;;;;;;;5.00;3.17;;;22.40;99.90;;;;;;493025;241;28696;-69
2022/07/30 10:03:12;;;;;;;5.83;3.10;;;22.50;99.90;;;;;;493282;241;28760;-72
2022/07/30 10:05:13;;;;;;;3.10;2.77;;;22.60;99.90;;;;;;493298;241;28772;-70
2022/07/30 10:07:14;;;;;;;3.40;3.17;;;22.70;99.90;;;;;;493064;241;28807;-71
2022/07/30 10:09:15;;;;;;;3.10;2.90;;;22.70;99.90;;;;;;493179;241;28712;-69
2022/07/30 10:11:17;;;;;;;3.27;3.07;;;22.60;99.90;;;;;;493255;241;29275;-69
2022/07/30 10:13:18;;;;;;;6.87;2.77;;;22.70;99.90;;;;;;493240;241;29332;-72
2022/07/30 10:15:19;;;;;;;2.90;2.70;;;23.00;99.90;;;;;;493269;241;29215;-70
2022/07/30 10:17:20;;;;;;;3.30;3.00;;;22.80;99.90;;;;;;493183;241;29257;-71
2022/07/30 10:19:22;;;;;;;3.63;3.33;;;22.90;99.90;;;;;;493257;241;28776;-70
2022/07/30 10:21:23;;;;;;;2.90;2.70;;;22.90;99.90;;;;;;493252;241;28701;-70
2022/07/30 10:23:28;;;;;;;3.30;3.00;;;22.80;99.90;;;;;;493274;241;28721;-69
2022/07/30 10:25:25;;;;;;;3.07;2.87;;;22.90;99.90;;;;;;492967;241;28783;-70
2022/07/30 10:27:27;;;;;;;3.57;3.27;;;23.00;99.90;;;;;;493180;241;28782;-71
2022/07/30 10:29:28;;;;;;;3.10;2.80;;;23.30;99.90;;;;;;493272;241;28701;-69
2022/07/30 10:31:29;;;;;;;3.23;2.77;;;23.30;99.90;;;;;;493273;241;28798;-70
2022/07/30 10:33:30;;;;;;;3.17;2.97;;;23.30;99.90;;;;;;493254;241;29164;-70
2022/07/30 10:35:32;;;;;;;3.10;2.80;;;23.30;99.90;;;;;;493055;241;29152;-70